Time;durP1;ratioP1;P1;durP2;ratioP2;P2;SDS_P1;SDS_P2;PMS_P1;PMS_P2;Temp;Humidity;BMP_temperature;BMP_pressure;BME280_temperature;BME280_humidity;BME280_pressure;Samples;Min_cycle;Max_cycle;Signal;HPM_P1;HPM_P2
2021/06/20 00:00:44;;;;;;;18.00;13.40;;;27.00;64.40;;;;;;5187138;28;26157;-69
2021/06/20 00:03:17;;;;;;;14.95;13.35;;;27.00;64.70;;;;;;5180581;28;20342;-69
2021/06/20 00:05:52;;;;;;;18.37;13.17;;;27.00;64.60;;;;;;5185937;28;20510;-70
2021/06/20 00:08:24;;;;;;;20.17;14.40;;;27.00;64.70;;;;;;5190073;28;20056;-69
2021/06/20 00:10:57;;;;;;;15.23;13.63;;;27.00;64.80;;;;;;5186531;28;20048;-68
2021/06/20 00:13:29;;;;;;;16.17;13.23;;;27.00;64.80;;;;;;5168894;28;20057;-69
2021/06/20 00:16:02;;;;;;;15.93;13.93;;;27.00;64.80;;;;;;5188315;28;20553;-69
2021/06/20 00:18:34;;;;;;;16.80;13.67;;;27.00;64.80;;;;;;5190165;28;20072;-69
2021/06/20 00:21:07;;;;;;;17.63;13.50;;;27.00;65.00;;;;;;5195895;28;20057;-69
2021/06/20 00:23:39;;;;;;;15.83;13.17;;;27.00;64.80;;;;;;5191566;28;20040;-69
2021/06/20 00:26:12;;;;;;;15.73;12.87;;;27.00;64.80;;;;;;5175944;28;20661;-69
2021/06/20 00:28:45;;;;;;;17.53;13.33;;;27.00;64.90;;;;;;5187304;28;20049;-69
2021/06/20 00:31:18;;;;;;;16.52;13.00;;;26.90;64.80;;;;;;5193171;28;20303;-69
2021/06/20 00:33:50;;;;;;;15.53;13.03;;;27.00;64.80;;;;;;5192005;28;20540;-69
2021/06/20 00:36:23;;;;;;;15.23;13.63;;;26.90;64.70;;;;;;5189688;28;20056;-69
2021/06/20 00:38:55;;;;;;;18.10;14.53;;;26.90;64.60;;;;;;5197055;28;20057;-69
2021/06/20 00:41:28;;;;;;;15.20;12.48;;;26.90;64.60;;;;;;5196932;28;20557;-69
2021/06/20 00:44:03;;;;;;;16.57;13.97;;;26.90;64.70;;;;;;5183667;28;20044;-69
2021/06/20 00:46:36;;;;;;;14.85;13.25;;;26.90;64.60;;;;;;5188406;28;20056;-69
2021/06/20 00:49:08;;;;;;;14.93;12.65;;;26.90;64.60;;;;;;5189824;28;20064;-69
2021/06/20 00:51:41;;;;;;;14.97;12.77;;;26.90;64.70;;;;;;5192105;28;20885;-68
2021/06/20 00:54:14;;;;;;;14.70;13.27;;;26.90;64.80;;;;;;5186195;28;20054;-68
2021/06/20 00:56:46;;;;;;;13.98;12.63;;;26.90;64.90;;;;;;5185497;28;20303;-69
2021/06/20 00:59:19;;;;;;;14.77;13.27;;;26.90;64.90;;;;;;5188292;28;20049;-67
2021/06/20 01:01:51;;;;;;;15.57;13.95;;;26.90;64.90;;;;;;5187786;28;20053;-68
2021/06/20 01:04:24;;;;;;;17.80;12.88;;;26.80;65.50;;;;;;5191633;28;20049;-69
2021/06/20 01:06:56;;;;;;;15.03;13.33;;;26.80;64.70;;;;;;5193846;28;20056;-69
2021/06/20 01:09:29;;;;;;;15.25;12.60;;;26.80;64.70;;;;;;5190090;28;20727;-69
2021/06/20 01:12:02;;;;;;;14.43;12.93;;;26.90;64.80;;;;;;5176324;28;20049;-70
2021/06/20 01:14:35;;;;;;;15.07;13.48;;;26.80;64.80;;;;;;5191517;28;21468;-69
2021/06/20 01:17:08;;;;;;;15.75;13.68;;;26.90;64.80;;;;;;5175327;28;20060;-69
2021/06/20 01:19:41;;;;;;;14.70;12.73;;;26.80;64.80;;;;;;5192207;28;20079;-69
2021/06/20 01:22:32;;;;;;;15.95;12.60;;;26.80;64.90;;;;;;5194183;28;20049;-69
2021/06/20 01:25:15;;;;;;;14.55;13.05;;;26.80;64.70;;;;;;5188774;28;20528;-70
2021/06/20 01:27:56;;;;;;;16.17;12.15;;;26.80;64.70;;;;;;5185924;28;20740;-68
2021/06/20 01:30:31;;;;;;;14.30;12.80;;;26.80;64.80;;;;;;5192821;28;20076;-69
2021/06/20 01:33:07;;;;;;;14.57;12.93;;;26.80;64.80;;;;;;5192172;28;20061;-68
2021/06/20 01:35:40;;;;;;;13.20;11.90;;;26.80;64.70;;;;;;5195484;28;20536;-69
2021/06/20 01:38:12;;;;;;;17.80;13.40;;;26.80;64.70;;;;;;5206096;28;20768;-69
2021/06/20 01:40:45;;;;;;;15.00;12.73;;;26.80;64.80;;;;;;5189118;28;20085;-69
2021/06/20 01:43:17;;;;;;;13.65;12.32;;;26.80;64.70;;;;;;5196577;28;20052;-69
2021/06/20 01:45:50;;;;;;;17.38;14.27;;;26.80;64.70;;;;;;5196207;28;20048;-67
2021/06/20 01:48:22;;;;;;;14.93;12.73;;;26.80;64.70;;;;;;5189990;28;20523;-69
2021/06/20 01:50:55;;;;;;;16.20;13.03;;;26.80;64.70;;;;;;5197177;28;20053;-69
2021/06/20 01:53:27;;;;;;;14.03;12.53;;;26.80;64.70;;;;;;5193466;28;20045;-69
2021/06/20 01:56:00;;;;;;;14.38;12.90;;;26.80;64.70;;;;;;5192556;28;20536;-67
2021/06/20 01:58:33;;;;;;;14.18;12.27;;;26.80;64.80;;;;;;5194860;28;20061;-68
2021/06/20 02:01:05;;;;;;;14.18;12.57;;;26.80;64.70;;;;;;5189545;28;20655;-68
2021/06/20 02:03:38;;;;;;;14.60;12.47;;;26.80;64.70;;;;;;5192043;28;20060;-68
2021/06/20 02:06:10;;;;;;;13.45;11.77;;;26.80;64.70;;;;;;5196098;28;20429;-68
2021/06/20 02:08:43;;;;;;;14.17;12.67;;;26.80;64.70;;;;;;5192153;28;24686;-68
2021/06/20 02:11:15;;;;;;;14.05;12.63;;;26.70;64.70;;;;;;5192526;28;20299;-68
2021/06/20 02:13:48;;;;;;;14.38;12.98;;;26.80;64.70;;;;;;5192464;28;20049;-69
2021/06/20 02:16:20;;;;;;;14.90;13.40;;;26.70;64.70;;;;;;5195342;28;20057;-68
2021/06/20 02:18:53;;;;;;;13.07;11.77;;;26.70;64.80;;;;;;5190671;28;21351;-68
2021/06/20 02:21:25;;;;;;;12.93;11.63;;;26.80;64.70;;;;;;5187948;28;20295;-68
2021/06/20 02:23:58;;;;;;;13.65;11.80;;;26.70;64.60;;;;;;5192805;28;20076;-69
2021/06/20 02:26:30;;;;;;;14.27;12.55;;;26.70;64.70;;;;;;5190107;28;20048;-69
2021/06/20 02:29:03;;;;;;;13.37;11.97;;;26.70;64.70;;;;;;5181276;28;20064;-69
2021/06/20 02:31:35;;;;;;;13.40;12.10;;;26.70;64.70;;;;;;5176594;28;20052;-69
2021/06/20 02:34:07;;;;;;;15.43;11.82;;;26.70;64.60;;;;;;5183619;28;20752;-69
2021/06/20 02:36:40;;;;;;;15.20;12.23;;;26.70;64.80;;;;;;5177012;28;20137;-68
2021/06/20 02:39:12;;;;;;;13.95;12.55;;;26.70;64.60;;;;;;5175547;28;20444;-69
2021/06/20 02:41:49;;;;;;;16.05;13.48;;;26.70;64.70;;;;;;5181021;28;20398;-69
2021/06/20 02:44:22;;;;;;;17.05;12.63;;;26.70;64.80;;;;;;5183772;28;20060;-67
2021/06/20 02:46:57;;;;;;;15.20;12.37;;;26.70;64.70;;;;;;5181594;28;20506;-69
2021/06/20 02:49:32;;;;;;;15.77;12.60;;;26.70;64.60;;;;;;5183863;28;20532;-68
2021/06/20 02:52:07;;;;;;;15.98;12.57;;;26.70;64.70;;;;;;5182852;28;21327;-67
2021/06/20 02:54:49;;;;;;;13.40;12.02;;;26.70;64.70;;;;;;5176930;28;20061;-69
2021/06/20 02:57:28;;;;;;;12.93;11.63;;;26.70;64.60;;;;;;5181660;28;20819;-69
2021/06/20 03:00:03;;;;;;;13.77;11.75;;;26.70;64.70;;;;;;5186954;28;20049;-69
2021/06/20 03:02:36;;;;;;;14.15;12.75;;;26.70;64.80;;;;;;5155861;28;20051;-68
2021/06/20 03:05:10;;;;;;;13.27;11.93;;;26.70;64.70;;;;;;5185394;28;20061;-67
2021/06/20 03:07:42;;;;;;;14.93;12.93;;;26.70;64.70;;;;;;5179672;28;20060;-69
2021/06/20 03:10:16;;;;;;;13.50;12.10;;;26.70;64.70;;;;;;5182120;28;20689;-69
2021/06/20 03:12:48;;;;;;;12.90;11.50;;;26.70;64.70;;;;;;5186744;28;20053;-68
2021/06/20 03:15:21;;;;;;;12.73;11.43;;;26.70;64.70;;;;;;5192326;28;21391;-66
2021/06/20 03:17:54;;;;;;;13.60;12.20;;;26.70;64.70;;;;;;5195292;28;20048;-69
2021/06/20 03:20:27;;;;;;;14.20;12.68;;;26.70;64.70;;;;;;5187610;28;20520;-69
2021/06/20 03:22:59;;;;;;;13.77;11.53;;;26.70;64.70;;;;;;5193807;28;20056;-70
2021/06/20 03:25:32;;;;;;;13.73;12.35;;;26.70;64.70;;;;;;5191546;28;20049;-68
2021/06/20 03:28:05;;;;;;;13.48;11.85;;;26.70;64.60;;;;;;5191396;28;20063;-69
2021/06/20 03:30:38;;;;;;;15.43;12.35;;;26.60;64.70;;;;;;5159438;28;20064;-68
2021/06/20 03:33:10;;;;;;;14.88;12.98;;;26.60;64.60;;;;;;5181220;28;20196;-69
2021/06/20 03:35:43;;;;;;;13.68;12.00;;;26.60;64.70;;;;;;5179060;28;20703;-68
2021/06/20 03:38:15;;;;;;;13.13;11.70;;;26.60;64.60;;;;;;5182857;28;20037;-69
2021/06/20 03:40:48;;;;;;;13.93;12.38;;;26.60;64.70;;;;;;5187813;28;20048;-68
2021/06/20 03:43:21;;;;;;;17.30;12.05;;;26.60;64.70;;;;;;5180086;28;20060;-68
2021/06/20 03:45:54;;;;;;;14.93;12.57;;;26.60;64.70;;;;;;5180774;28;20414;-67
2021/06/20 03:48:26;;;;;;;13.43;12.03;;;26.60;64.70;;;;;;5182051;28;21286;-69
2021/06/20 03:50:59;;;;;;;13.33;12.03;;;26.60;64.70;;;;;;5181191;28;20044;-68
2021/06/20 03:53:32;;;;;;;12.73;11.53;;;26.60;65.40;;;;;;5181909;28;20060;-69
2021/06/20 03:56:05;;;;;;;20.42;12.45;;;26.60;64.70;;;;;;5182213;28;20063;-69
2021/06/20 03:58:38;;;;;;;13.45;11.85;;;26.60;64.70;;;;;;5183967;28;20060;-68
2021/06/20 04:01:10;;;;;;;15.67;12.20;;;26.60;64.70;;;;;;5183980;28;20056;-68
2021/06/20 04:03:43;;;;;;;13.17;11.80;;;26.60;64.70;;;;;;5194022;28;20873;-69
2021/06/20 04:06:15;;;;;;;15.45;12.55;;;26.60;64.70;;;;;;5181826;28;20060;-69
2021/06/20 04:08:48;;;;;;;14.90;12.17;;;26.60;64.70;;;;;;5181676;28;20526;-69
2021/06/20 04:11:20;;;;;;;14.07;12.68;;;26.60;64.70;;;;;;5181225;28;20052;-69
2021/06/20 04:13:53;;;;;;;17.03;12.83;;;26.60;64.70;;;;;;5179670;28;20059;-69
2021/06/20 04:16:26;;;;;;;15.88;12.55;;;26.60;64.70;;;;;;5180338;28;20061;-68
2021/06/20 04:19:00;;;;;;;14.07;11.80;;;26.60;64.70;;;;;;5181912;28;20053;-69
2021/06/20 04:21:32;;;;;;;12.85;11.60;;;26.50;64.70;;;;;;5179005;28;20329;-68
2021/06/20 04:24:05;;;;;;;13.13;11.70;;;26.60;64.80;;;;;;5185732;28;20053;-69
2021/06/20 04:26:38;;;;;;;14.32;12.65;;;26.50;64.80;;;;;;5180272;28;20064;-69
2021/06/20 04:29:10;;;;;;;16.70;12.73;;;26.50;64.80;;;;;;5178930;28;20053;-68
2021/06/20 04:31:43;;;;;;;15.43;12.20;;;26.50;64.90;;;;;;5185619;28;20746;-69
2021/06/20 04:34:16;;;;;;;15.43;11.60;;;26.50;64.90;;;;;;5179390;28;20694;-69
2021/06/20 04:36:49;;;;;;;14.30;12.63;;;26.50;64.90;;;;;;5184319;28;20562;-69
2021/06/20 04:39:22;;;;;;;13.38;11.93;;;26.60;65.00;;;;;;5193431;28;20053;-67
2021/06/20 04:41:54;;;;;;;13.90;11.73;;;26.50;65.10;;;;;;5179137;28;20800;-70
2021/06/20 04:44:45;;;;;;;13.23;11.93;;;26.50;65.10;;;;;;5175869;28;21634;-68
2021/06/20 04:47:21;;;;;;;14.38;12.88;;;26.50;65.20;;;;;;5184393;28;20554;-68
2021/06/20 04:49:54;;;;;;;13.40;12.10;;;26.50;65.30;;;;;;5182094;28;20425;-68
2021/06/20 04:52:27;;;;;;;13.30;11.60;;;26.50;65.40;;;;;;5184557;28;20053;-69
2021/06/20 04:54:59;;;;;;;14.13;11.77;;;26.50;65.40;;;;;;5178096;28;20059;-68
2021/06/20 04:57:32;;;;;;;13.18;11.77;;;26.50;65.50;;;;;;5160120;28;22700;-69
2021/06/20 05:00:06;;;;;;;14.13;11.20;;;26.50;65.60;;;;;;5182442;28;20053;-69
2021/06/20 05:02:39;;;;;;;15.98;12.85;;;26.50;65.60;;;;;;5175892;28;20057;-68
2021/06/20 05:05:12;;;;;;;15.52;12.18;;;26.50;65.60;;;;;;5182117;28;20057;-67
2021/06/20 05:07:44;;;;;;;14.15;12.50;;;26.50;65.70;;;;;;5182874;28;20056;-69
2021/06/20 05:10:17;;;;;;;14.77;11.88;;;26.50;65.80;;;;;;5167999;28;20337;-69
2021/06/20 05:12:54;;;;;;;13.55;12.13;;;26.50;65.80;;;;;;5186963;28;20431;-69
2021/06/20 05:15:27;;;;;;;19.35;13.10;;;26.50;65.80;;;;;;5181408;28;20056;-68
2021/06/20 05:17:59;;;;;;;16.53;12.67;;;26.50;65.90;;;;;;5177030;28;20413;-69
2021/06/20 05:20:32;;;;;;;15.57;12.50;;;26.50;65.90;;;;;;5181464;28;20668;-68
2021/06/20 05:23:05;;;;;;;16.77;12.32;;;26.50;66.00;;;;;;5177256;28;20584;-67
2021/06/20 05:25:37;;;;;;;14.77;12.83;;;26.50;66.00;;;;;;5193195;28;20071;-67
2021/06/20 05:28:10;;;;;;;14.68;12.27;;;26.50;66.10;;;;;;5191338;28;20049;-67
2021/06/20 05:30:45;;;;;;;17.63;11.97;;;26.50;66.20;;;;;;5193280;28;20734;-69
2021/06/20 05:33:19;;;;;;;18.38;12.80;;;26.50;66.20;;;;;;5184998;28;20407;-69
2021/06/20 05:35:51;;;;;;;16.23;11.85;;;26.50;66.20;;;;;;5190731;28;20068;-69
2021/06/20 05:38:24;;;;;;;14.43;12.68;;;26.50;66.30;;;;;;5194618;28;20064;-69
2021/06/20 05:40:59;;;;;;;;;;;26.50;66.30;;;;;;5192510;28;20049;-69
2021/06/20 05:43:32;;;;;;;15.93;12.98;;;26.50;66.40;;;;;;5192720;28;20803;-69
2021/06/20 05:46:04;;;;;;;15.13;12.87;;;26.50;66.40;;;;;;5193018;28;20057;-69
2021/06/20 05:48:37;;;;;;;14.77;13.03;;;26.50;66.40;;;;;;5193277;28;20299;-69
2021/06/20 05:51:09;;;;;;;15.15;12.68;;;26.50;66.50;;;;;;5191225;28;20307;-69
2021/06/20 05:53:43;;;;;;;27.15;12.45;;;26.50;66.50;;;;;;5190934;28;20053;-69
2021/06/20 05:56:15;;;;;;;14.65;11.93;;;26.50;66.50;;;;;;5191481;28;20450;-68
2021/06/20 05:58:48;;;;;;;13.02;11.73;;;26.50;66.60;;;;;;5192093;28;20409;-68
2021/06/20 06:01:20;;;;;;;14.40;10.97;;;26.50;66.50;;;;;;5190731;28;20056;-68
2021/06/20 06:03:53;;;;;;;18.33;12.00;;;26.50;66.50;;;;;;5198113;28;20073;-70
2021/06/20 06:06:25;;;;;;;15.18;12.48;;;26.50;66.60;;;;;;5194713;28;20066;-67
2021/06/20 06:08:58;;;;;;;16.27;11.40;;;26.50;66.60;;;;;;5201022;28;20576;-68
2021/06/20 06:11:30;;;;;;;12.73;10.83;;;26.60;66.50;;;;;;5198812;28;20053;-69
2021/06/20 06:14:02;;;;;;;13.48;11.70;;;26.50;66.50;;;;;;5201447;28;20061;-67
2021/06/20 06:16:35;;;;;;;20.73;12.45;;;26.50;66.40;;;;;;5202006;28;20221;-69
2021/06/20 06:19:09;;;;;;;16.13;12.05;;;26.50;66.40;;;;;;5204448;28;20061;-68
2021/06/20 06:21:42;;;;;;;15.93;12.15;;;26.50;66.40;;;;;;5201703;28;20037;-67
2021/06/20 06:24:15;;;;;;;19.05;12.90;;;26.60;66.50;;;;;;5208270;28;20758;-68
2021/06/20 06:26:48;;;;;;;25.63;10.68;;;26.60;66.70;;;;;;5201375;28;20053;-68
2021/06/20 06:29:21;;;;;;;21.27;10.77;;;26.60;66.70;;;;;;5199191;28;20055;-69
2021/06/20 06:31:53;;;;;;;23.80;11.95;;;26.60;66.40;;;;;;5203861;28;20053;-66
2021/06/20 06:34:26;;;;;;;25.13;11.63;;;26.60;66.10;;;;;;5197100;28;20063;-68
2021/06/20 06:36:59;;;;;;;24.30;10.98;;;26.60;65.90;;;;;;5201463;28;21386;-68
2021/06/20 06:39:32;;;;;;;25.52;11.07;;;26.60;66.20;;;;;;5212442;28;20068;-68
2021/06/20 06:42:05;;;;;;;22.13;10.35;;;26.60;65.70;;;;;;5195558;28;25824;-68
2021/06/20 06:44:37;;;;;;;25.45;10.30;;;26.60;65.60;;;;;;5199498;28;20052;-68
2021/06/20 06:47:10;;;;;;;25.83;10.73;;;26.50;65.50;;;;;;5184825;28;20130;-68
2021/06/20 06:49:42;;;;;;;19.37;9.43;;;26.60;65.60;;;;;;5193030;28;20052;-69
2021/06/20 06:52:15;;;;;;;29.17;9.82;;;26.50;65.40;;;;;;5191177;28;20072;-67
2021/06/20 06:54:51;;;;;;;25.48;10.35;;;26.50;65.30;;;;;;5197746;28;20048;-66
2021/06/20 06:57:25;;;;;;;34.45;10.68;;;26.50;65.20;;;;;;5189703;28;20057;-68
2021/06/20 06:59:57;;;;;;;28.70;10.52;;;26.50;65.00;;;;;;5193725;28;20057;-68
2021/06/20 07:02:31;;;;;;;30.07;9.77;;;26.50;64.90;;;;;;5195532;28;20058;-68
2021/06/20 07:05:04;;;;;;;37.13;10.50;;;26.50;64.80;;;;;;5194986;28;20310;-68
2021/06/20 07:07:37;;;;;;;36.47;10.38;;;26.50;64.80;;;;;;5191704;28;20275;-67
2021/06/20 07:10:10;;;;;;;35.60;9.90;;;26.50;64.70;;;;;;5190217;28;20045;-67
2021/06/20 07:12:42;;;;;;;26.80;10.25;;;26.50;64.80;;;;;;5188909;28;20639;-68
2021/06/20 07:15:16;;;;;;;23.40;9.40;;;26.50;64.80;;;;;;5193308;28;20041;-69
2021/06/20 07:17:49;;;;;;;29.50;9.93;;;26.50;64.80;;;;;;5197615;28;20060;-68
2021/06/20 07:20:22;;;;;;;28.58;9.68;;;26.50;64.80;;;;;;5184951;28;20049;-68
2021/06/20 07:22:55;;;;;;;28.83;9.65;;;26.50;64.80;;;;;;5187283;28;20064;-66
2021/06/20 07:25:28;;;;;;;28.00;9.77;;;26.50;64.90;;;;;;5181978;28;20057;-66
2021/06/20 07:28:00;;;;;;;30.88;10.15;;;26.50;65.00;;;;;;5173925;28;20061;-67
2021/06/20 07:30:33;;;;;;;27.75;9.88;;;26.50;65.10;;;;;;5178541;28;20535;-70
2021/06/20 07:33:06;;;;;;;37.97;10.60;;;26.50;65.20;;;;;;5179379;28;20045;-70
2021/06/20 07:35:38;;;;;;;28.65;10.43;;;26.50;65.30;;;;;;5176637;28;20057;-71
2021/06/20 07:38:11;;;;;;;24.35;9.60;;;26.50;65.20;;;;;;5163013;28;20053;-71
2021/06/20 07:40:43;;;;;;;36.37;10.50;;;26.60;65.20;;;;;;5164550;28;20063;-71
2021/06/20 07:43:16;;;;;;;24.67;9.70;;;26.60;65.20;;;;;;5170825;28;20076;-70
2021/06/20 07:45:50;;;;;;;21.58;10.23;;;26.70;65.20;;;;;;5178392;28;20052;-71
2021/06/20 07:48:24;;;;;;;26.98;11.00;;;26.70;65.20;;;;;;5185521;28;20057;-71
2021/06/20 07:50:57;;;;;;;28.77;10.75;;;26.80;65.10;;;;;;5172028;28;20048;-70
2021/06/20 07:53:29;;;;;;;32.38;10.32;;;26.80;65.00;;;;;;5186649;28;22371;-70
2021/06/20 07:56:02;;;;;;;26.10;10.88;;;26.90;64.90;;;;;;5193705;28;20416;-70
2021/06/20 07:58:34;;;;;;;27.30;10.97;;;26.90;64.80;;;;;;5183724;28;20060;-71
2021/06/20 08:01:07;;;;;;;27.97;9.87;;;26.90;64.80;;;;;;5180614;28;20583;-73
2021/06/20 08:03:39;;;;;;;40.83;11.05;;;27.00;64.80;;;;;;5204951;28;20068;-71
2021/06/20 08:06:12;;;;;;;32.30;11.05;;;27.10;64.80;;;;;;5197597;28;20052;-71
2021/06/20 08:08:45;;;;;;;25.73;9.77;;;27.10;64.50;;;;;;5207185;28;20099;-74
2021/06/20 08:11:17;;;;;;;26.88;10.73;;;27.20;64.30;;;;;;5200101;28;20053;-74
2021/06/20 08:13:50;;;;;;;26.50;10.80;;;27.30;64.20;;;;;;5206607;28;20063;-75
2021/06/20 08:16:23;;;;;;;28.15;10.57;;;27.40;63.90;;;;;;5205805;28;20072;-74
2021/06/20 08:18:55;;;;;;;17.90;9.68;;;27.50;63.70;;;;;;5199289;28;20063;-74
2021/06/20 08:21:28;;;;;;;21.63;10.10;;;27.50;63.60;;;;;;5199609;28;20056;-73
2021/06/20 08:24:00;;;;;;;19.80;9.40;;;27.60;63.50;;;;;;5193875;28;20056;-72
2021/06/20 08:26:34;;;;;;;;;;;27.70;63.40;;;;;;5179494;28;20049;-75
2021/06/20 08:29:07;;;;;;;19.23;9.32;;;27.70;63.30;;;;;;5199783;28;19936;-76
2021/06/20 08:31:39;;;;;;;28.65;10.30;;;27.70;63.20;;;;;;5177850;28;20056;-75
2021/06/20 08:34:12;;;;;;;21.60;8.77;;;27.80;63.10;;;;;;5207751;28;20501;-75
2021/06/20 08:36:44;;;;;;;21.40;9.50;;;27.80;63.10;;;;;;5197079;28;20061;-71
2021/06/20 08:39:17;;;;;;;20.13;9.60;;;27.90;63.10;;;;;;5205175;28;20676;-72
2021/06/20 08:41:50;;;;;;;20.90;9.80;;;27.90;62.90;;;;;;5203848;28;20076;-70
2021/06/20 08:44:26;;;;;;;23.23;9.00;;;28.00;62.90;;;;;;5205728;28;20053;-71
2021/06/20 08:47:00;;;;;;;17.77;9.25;;;28.00;62.80;;;;;;5197040;28;20056;-72
2021/06/20 08:49:34;;;;;;;19.25;9.02;;;28.00;62.70;;;;;;5192851;28;20049;-71
2021/06/20 08:52:07;;;;;;;21.08;8.68;;;28.10;62.80;;;;;;4498372;28;10000328;-74
2021/06/20 08:55:00;;;;;;;21.75;9.25;;;28.10;62.50;;;;;;5181286;28;20191;-71
2021/06/20 08:57:36;;;;;;;16.13;8.73;;;28.10;62.60;;;;;;5186127;28;20053;-75
2021/06/20 09:00:19;;;;;;;24.80;9.85;;;28.10;62.60;;;;;;5181897;28;20060;-72
2021/06/20 09:03:00;;;;;;;19.40;8.93;;;28.10;62.60;;;;;;5180725;28;20079;-71
2021/06/20 09:05:33;;;;;;;18.17;9.23;;;28.10;62.40;;;;;;5182361;28;20053;-67
2021/06/20 09:08:16;;;;;;;18.80;9.00;;;28.10;62.50;;;;;;5181871;28;20056;-73
2021/06/20 09:10:48;;;;;;;19.45;9.68;;;28.20;62.40;;;;;;5190889;28;20049;-74
2021/06/20 09:13:21;;;;;;;15.13;9.17;;;28.20;62.30;;;;;;5189603;28;20057;-69
2021/06/20 09:16:02;;;;;;;23.63;9.20;;;28.20;62.30;;;;;;5185022;28;20106;-70
2021/06/20 09:18:35;;;;;;;28.83;9.73;;;28.30;62.40;;;;;;5179008;28;20306;-70
2021/06/20 09:21:10;;;;;;;32.47;9.63;;;28.20;62.40;;;;;;5161415;28;20056;-72
2021/06/20 09:23:43;;;;;;;20.35;8.70;;;28.20;63.00;;;;;;5173981;28;20057;-71
2021/06/20 09:26:16;;;;;;;29.08;9.45;;;28.30;62.20;;;;;;5152603;28;20060;-69
2021/06/20 09:28:50;;;;;;;30.48;8.40;;;28.30;62.20;;;;;;5160317;28;20533;-70
2021/06/20 09:31:23;;;;;;;17.73;8.55;;;28.40;62.20;;;;;;5177548;28;20064;-73
2021/06/20 09:34:00;;;;;;;21.60;8.95;;;28.30;62.00;;;;;;5172402;28;20595;-73
2021/06/20 09:36:33;;;;;;;20.88;9.32;;;28.40;62.00;;;;;;5147083;28;20058;-71
2021/06/20 09:39:17;;;;;;;24.13;9.33;;;28.40;62.10;;;;;;5173332;28;20064;-69
2021/06/20 09:41:57;;;;;;;31.13;9.15;;;28.30;62.00;;;;;;5165306;28;20068;-72
2021/06/20 09:44:35;;;;;;;20.58;9.15;;;28.40;62.10;;;;;;5141336;28;20060;-73
2021/06/20 09:47:11;;;;;;;27.05;9.10;;;28.40;62.10;;;;;;5180381;28;20053;-72
2021/06/20 09:49:51;;;;;;;24.83;8.18;;;28.40;62.10;;;;;;5182158;28;20052;-77
2021/06/20 09:52:33;;;;;;;22.15;8.90;;;28.40;62.00;;;;;;5193148;28;20514;-76
2021/06/20 09:55:10;;;;;;;25.02;8.63;;;28.50;62.20;;;;;;5185167;28;20072;-75
2021/06/20 09:57:44;;;;;;;21.17;8.00;;;28.50;62.10;;;;;;5187960;28;20049;-69
2021/06/20 10:00:17;;;;;;;17.42;8.15;;;28.50;62.10;;;;;;5178964;28;20049;-70
2021/06/20 10:02:50;;;;;;;17.77;8.38;;;28.50;62.10;;;;;;5182176;28;20138;-72
2021/06/20 10:05:22;;;;;;;17.70;7.67;;;28.50;62.10;;;;;;5186273;28;20508;-74
2021/06/20 10:07:56;;;;;;;18.08;7.70;;;28.50;62.00;;;;;;5187874;28;20052;-73
2021/06/20 10:10:30;;;;;;;20.83;8.60;;;28.50;62.00;;;;;;5198362;28;20056;-72
2021/06/20 10:13:02;;;;;;;23.35;8.20;;;28.50;62.10;;;;;;5193928;28;20060;-72
2021/06/20 10:15:35;;;;;;;18.87;8.43;;;28.50;62.00;;;;;;5179271;28;20137;-73
2021/06/20 10:18:10;;;;;;;26.35;9.73;;;28.60;62.20;;;;;;5180974;28;20666;-71
2021/06/20 10:20:43;;;;;;;25.42;7.78;;;28.60;61.80;;;;;;5182835;28;23375;-69
2021/06/20 10:23:23;;;;;;;18.85;8.05;;;28.50;61.50;;;;;;5182606;28;20577;-70
2021/06/20 10:26:05;;;;;;;19.77;7.30;;;28.50;61.30;;;;;;5181633;28;20053;-71
2021/06/20 10:28:37;;;;;;;25.65;8.35;;;28.50;61.40;;;;;;5171164;28;20048;-69
2021/06/20 10:31:10;;;;;;;46.57;9.30;;;28.50;61.40;;;;;;5175569;28;20547;-69
2021/06/20 10:33:43;;;;;;;57.92;10.48;;;28.50;61.00;;;;;;5182039;28;20049;-69
2021/06/20 10:36:16;;;;;;;33.97;8.02;;;28.50;61.10;;;;;;5145638;28;20455;-69
2021/06/20 10:38:51;;;;;;;30.33;9.00;;;28.50;60.80;;;;;;5128765;28;20394;-70
2021/06/20 10:41:26;;;;;;;41.78;9.10;;;28.40;60.60;;;;;;5179947;28;20040;-69
2021/06/20 10:44:00;;;;;;;29.48;7.55;;;28.50;60.70;;;;;;5179886;28;20050;-70
2021/06/20 10:46:33;;;;;;;75.78;11.18;;;28.50;60.80;;;;;;5179604;28;20044;-72
2021/06/20 10:49:15;;;;;;;76.50;12.65;;;28.40;60.80;;;;;;5175231;28;20473;-70
2021/06/20 10:51:47;;;;;;;83.97;14.48;;;28.50;61.00;;;;;;5186062;28;20409;-71
2021/06/20 10:54:23;;;;;;;61.27;13.27;;;28.50;61.00;;;;;;5181785;28;20489;-72
2021/06/20 10:57:04;;;;;;;49.63;11.93;;;28.50;60.90;;;;;;5177351;28;20053;-71
2021/06/20 10:59:36;;;;;;;49.55;12.05;;;28.50;60.90;;;;;;5176941;28;20056;-69
2021/06/20 11:02:22;;;;;;;49.75;10.52;;;28.50;60.70;;;;;;5181890;28;20052;-72
2021/06/20 11:04:55;;;;;;;59.28;11.82;;;28.50;60.60;;;;;;5190604;28;20053;-71
2021/06/20 11:07:28;;;;;;;69.03;11.93;;;28.50;60.70;;;;;;5193919;28;20739;-71
2021/06/20 11:10:01;;;;;;;48.22;11.10;;;28.50;60.60;;;;;;5173029;28;20053;-69
2021/06/20 11:12:34;;;;;;;42.13;10.77;;;28.50;60.50;;;;;;5171963;28;21211;-71
2021/06/20 11:15:10;;;;;;;;;;;28.50;60.50;;;;;;5177612;28;20373;-70
2021/06/20 11:17:42;;;;;;;43.70;9.82;;;28.40;60.40;;;;;;5187681;28;19932;-70
2021/06/20 11:20:16;;;;;;;44.87;9.10;;;28.50;60.60;;;;;;5189299;28;20059;-71
2021/06/20 11:22:48;;;;;;;30.48;8.30;;;28.50;60.50;;;;;;4486250;28;9999890;-70
2021/06/20 11:25:24;;;;;;;33.97;9.32;;;28.50;60.50;;;;;;5200051;28;20060;-69
2021/06/20 11:27:58;;;;;;;34.67;8.50;;;28.50;60.20;;;;;;5179958;28;20056;-69
2021/06/20 11:30:30;;;;;;;35.17;8.27;;;28.60;60.40;;;;;;5181319;28;20056;-70
2021/06/20 11:33:03;;;;;;;35.25;8.70;;;28.50;60.40;;;;;;5189019;28;20056;-73
2021/06/20 11:35:38;;;;;;;25.83;8.07;;;28.60;60.40;;;;;;5191372;28;20053;-72
2021/06/20 11:38:11;;;;;;;40.83;8.32;;;28.60;60.20;;;;;;5184780;28;20071;-73
2021/06/20 11:40:44;;;;;;;35.92;8.52;;;28.60;60.20;;;;;;5186572;28;20061;-70
2021/06/20 11:43:16;;;;;;;31.27;8.52;;;28.60;60.20;;;;;;5157410;28;20049;-71
2021/06/20 11:45:49;;;;;;;31.50;7.88;;;28.60;60.30;;;;;;5182510;28;20068;-73
2021/06/20 11:48:21;;;;;;;26.10;7.43;;;28.60;60.30;;;;;;5190595;28;20058;-71
2021/06/20 11:50:54;;;;;;;24.27;7.60;;;28.60;60.30;;;;;;5170087;28;20052;-69
2021/06/20 11:53:28;;;;;;;45.33;7.85;;;28.60;60.30;;;;;;5177091;28;20417;-71
2021/06/20 11:56:00;;;;;;;;;;;28.60;60.30;;;;;;5181926;28;20053;-74
2021/06/20 11:58:42;;;;;;;26.25;7.43;;;28.50;60.30;;;;;;5179502;28;19933;-72
2021/06/20 12:01:15;;;;;;;28.83;7.10;;;28.50;60.00;;;;;;5187178;28;20048;-71
2021/06/20 12:03:47;;;;;;;21.33;8.03;;;28.60;59.70;;;;;;5191274;28;20057;-72
2021/06/20 12:06:26;;;;;;;28.35;7.95;;;28.60;59.70;;;;;;5201771;28;20685;-70
2021/06/20 12:08:59;;;;;;;29.25;8.02;;;28.60;59.80;;;;;;5179626;28;20048;-70
2021/06/20 12:11:32;;;;;;;27.50;7.53;;;28.60;60.20;;;;;;5193322;28;20059;-70
2021/06/20 12:14:06;;;;;;;23.95;7.30;;;28.60;60.10;;;;;;5187536;28;20056;-71
2021/06/20 12:16:46;;;;;;;21.95;6.75;;;28.70;60.10;;;;;;5192783;28;20061;-68
2021/06/20 12:19:21;;;;;;;24.83;7.25;;;28.70;60.10;;;;;;5172718;28;20500;-71
2021/06/20 12:22:07;;;;;;;31.75;7.30;;;28.70;60.20;;;;;;5188183;28;20489;-69
2021/06/20 12:24:48;;;;;;;21.80;7.03;;;28.70;60.60;;;;;;5162313;28;20361;-70
2021/06/20 12:27:36;;;;;;;20.20;7.72;;;28.70;60.40;;;;;;5185520;28;20061;-69
2021/06/20 12:30:22;;;;;;;28.50;8.05;;;28.70;60.80;;;;;;5185607;28;20064;-68
2021/06/20 12:32:55;;;;;;;26.15;7.70;;;28.80;60.70;;;;;;5191495;28;20560;-70
2021/06/20 12:35:31;;;;;;;22.23;6.90;;;28.80;60.70;;;;;;5182930;28;20417;-74
2021/06/20 12:38:18;;;;;;;20.10;7.22;;;28.80;61.10;;;;;;5164241;28;20050;-74
2021/06/20 12:40:52;;;;;;;22.92;7.05;;;28.80;61.20;;;;;;5143967;28;20469;-73
2021/06/20 12:43:25;;;;;;;28.92;7.68;;;28.80;61.00;;;;;;5173794;28;20505;-74
2021/06/20 12:46:02;;;;;;;23.55;7.45;;;28.80;61.00;;;;;;5177683;28;20049;-69
2021/06/20 12:48:38;;;;;;;23.58;7.80;;;28.80;61.50;;;;;;5203196;28;20045;-70
2021/06/20 12:51:13;;;;;;;30.52;6.95;;;28.80;61.40;;;;;;5208517;28;20049;-70
2021/06/20 12:53:48;;;;;;;29.42;6.93;;;28.80;61.60;;;;;;5186406;28;20088;-71
2021/06/20 12:56:22;;;;;;;33.72;7.15;;;28.80;61.40;;;;;;5189656;28;20075;-71
2021/06/20 12:59:00;;;;;;;34.25;7.57;;;28.80;61.80;;;;;;5142497;28;20048;-70
2021/06/20 13:01:50;;;;;;;30.58;8.27;;;28.80;61.80;;;;;;5135308;28;20049;-69
2021/06/20 13:04:23;;;;;;;28.33;7.68;;;28.80;62.00;;;;;;5143991;28;20049;-71